sensor_id;sensor_type;location;lat;lon;timestamp;temperature;humidity
11009;DHT22;5557;51.670;7.788;2022-10-31T00:01:19;12.80;99.90
11009;DHT22;5557;51.670;7.788;2022-10-31T00:03:46;12.90;99.90
11009;DHT22;5557;51.670;7.788;2022-10-31T00:06:14;12.90;99.90
11009;DHT22;5557;51.670;7.788;2022-10-31T00:08:46;13.00;99.90
11009;DHT22;5557;51.670;7.788;2022-10-31T00:11:13;13.00;99.90
11009;DHT22;5557;51.670;7.788;2022-10-31T00:13:39;13.00;99.90
11009;DHT22;5557;51.670;7.788;2022-10-31T00:16:13;13.00;99.90
11009;DHT22;5557;51.670;7.788;2022-10-31T00:18:40;13.00;99.90
11009;DHT22;5557;51.670;7.788;2022-10-31T00:21:07;13.00;99.90
11009;DHT22;5557;51.670;7.788;2022-10-31T00:23:34;12.90;99.90
11009;DHT22;5557;51.670;7.788;2022-10-31T00:26:03;13.00;99.90
11009;DHT22;5557;51.670;7.788;2022-10-31T00:28:31;13.00;99.90
11009;DHT22;5557;51.670;7.788;2022-10-31T00:31:03;13.00;99.90
11009;DHT22;5557;51.670;7.788;2022-10-31T00:33:33;13.00;99.90
11009;DHT22;5557;51.670;7.788;2022-10-31T00:36:00;13.10;99.90
11009;DHT22;5557;51.670;7.788;2022-10-31T00:38:27;13.10;99.90
11009;DHT22;5557;51.670;7.788;2022-10-31T00:40:54;13.10;99.90
11009;DHT22;5557;51.670;7.788;2022-10-31T00:43:21;13.10;99.90
11009;DHT22;5557;51.670;7.788;2022-10-31T00:45:48;13.20;99.90
11009;DHT22;5557;51.670;7.788;2022-10-31T00:48:15;13.20;99.90
11009;DHT22;5557;51.670;7.788;2022-10-31T00:50:42;13.30;99.90
11009;DHT22;5557;51.670;7.788;2022-10-31T00:53:09;13.40;99.90
11009;DHT22;5557;51.670;7.788;2022-10-31T00:55:36;13.40;99.90
11009;DHT22;5557;51.670;7.788;2022-10-31T00:58:03;13.40;99.90
11009;DHT22;5557;51.670;7.788;2022-10-31T01:00:30;13.40;99.90
11009;DHT22;5557;51.670;7.788;2022-10-31T01:02:57;13.50;99.90
11009;DHT22;5557;51.670;7.788;2022-10-31T01:05:25;13.50;99.90
11009;DHT22;5557;51.670;7.788;2022-10-31T01:07:52;13.50;99.90
11009;DHT22;5557;51.670;7.788;2022-10-31T01:10:19;13.50;99.90
11009;DHT22;5557;51.670;7.788;2022-10-31T01:12:47;13.50;99.90
11009;DHT22;5557;51.670;7.788;2022-10-31T01:15:19;13.50;99.90
11009;DHT22;5557;51.670;7.788;2022-10-31T01:17:47;13.50;99.90
11009;DHT22;5557;51.670;7.788;2022-10-31T01:20:15;13.40;99.90
11009;DHT22;5557;51.670;7.788;2022-10-31T01:22:42;13.40;99.90
11009;DHT22;5557;51.670;7.788;2022-10-31T01:25:12;13.40;99.90
11009;DHT22;5557;51.670;7.788;2022-10-31T01:27:39;13.40;99.90
11009;DHT22;5557;51.670;7.788;2022-10-31T01:30:06;13.30;99.90
11009;DHT22;5557;51.670;7.788;2022-10-31T01:32:33;13.30;99.90
11009;DHT22;5557;51.670;7.788;2022-10-31T01:35:00;13.20;99.90
11009;DHT22;5557;51.670;7.788;2022-10-31T01:37:27;13.20;99.90
11009;DHT22;5557;51.670;7.788;2022-10-31T01:39:54;13.10;99.90
11009;DHT22;5557;51.670;7.788;2022-10-31T01:42:22;13.20;99.90
11009;DHT22;5557;51.670;7.788;2022-10-31T01:47:25;13.20;99.90
11009;DHT22;5557;51.670;7.788;2022-10-31T01:49:56;13.20;99.90
11009;DHT22;5557;51.670;7.788;2022-10-31T01:52:32;13.20;99.90
11009;DHT22;5557;51.670;7.788;2022-10-31T01:55:09;13.20;99.90
11009;DHT22;5557;51.670;7.788;2022-10-31T01:57:40;13.20;99.90
11009;DHT22;5557;51.670;7.788;2022-10-31T02:00:10;13.20;99.90
11009;DHT22;5557;51.670;7.788;2022-10-31T02:02:37;13.20;99.90
11009;DHT22;5557;51.670;7.788;2022-10-31T02:05:08;13.20;99.90
11009;DHT22;5557;51.670;7.788;2022-10-31T02:08:08;13.20;99.90
11009;DHT22;5557;51.670;7.788;2022-10-31T02:10:37;13.30;99.90
11009;DHT22;5557;51.670;7.788;2022-10-31T02:13:06;13.30;99.90
11009;DHT22;5557;51.670;7.788;2022-10-31T02:15:35;13.40;99.90
11009;DHT22;5557;51.670;7.788;2022-10-31T02:18:03;13.40;99.90
11009;DHT22;5557;51.670;7.788;2022-10-31T02:20:46;13.50;99.90
11009;DHT22;5557;51.670;7.788;2022-10-31T02:27:29;13.50;99.90
11009;DHT22;5557;51.670;7.788;2022-10-31T02:30:11;13.60;99.90
11009;DHT22;5557;51.670;7.788;2022-10-31T02:36:00;13.60;99.90
11009;DHT22;5557;51.670;7.788;2022-10-31T02:40:07;13.60;99.90
11009;DHT22;5557;51.670;7.788;2022-10-31T02:42:39;13.40;99.90
11009;DHT22;5557;51.670;7.788;2022-10-31T02:45:30;13.30;99.90
11009;DHT22;5557;51.670;7.788;2022-10-31T02:48:01;13.20;99.90
11009;DHT22;5557;51.670;7.788;2022-10-31T02:50:33;13.10;99.90
11009;DHT22;5557;51.670;7.788;2022-10-31T02:53:01;13.10;99.90
11009;DHT22;5557;51.670;7.788;2022-10-31T02:55:51;13.00;99.90
11009;DHT22;5557;51.670;7.788;2022-10-31T02:58:19;12.90;99.90
11009;DHT22;5557;51.670;7.788;2022-10-31T03:10:35;12.40;99.90
11009;DHT22;5557;51.670;7.788;2022-10-31T03:13:21;12.30;99.90
11009;DHT22;5557;51.670;7.788;2022-10-31T03:16:09;12.30;99.90
11009;DHT22;5557;51.670;7.788;2022-10-31T03:18:48;12.20;99.90
11009;DHT22;5557;51.670;7.788;2022-10-31T03:21:25;12.10;99.90
11009;DHT22;5557;51.670;7.788;2022-10-31T03:23:54;12.00;99.90
11009;DHT22;5557;51.670;7.788;2022-10-31T03:26:24;11.90;99.90
11009;DHT22;5557;51.670;7.788;2022-10-31T03:29:00;12.00;99.90
11009;DHT22;5557;51.670;7.788;2022-10-31T03:31:36;12.00;99.90
11009;DHT22;5557;51.670;7.788;2022-10-31T03:34:07;12.10;99.90
11009;DHT22;5557;51.670;7.788;2022-10-31T03:36:38;12.20;99.90
11009;DHT22;5557;51.670;7.788;2022-10-31T03:39:13;12.20;99.90
11009;DHT22;5557;51.670;7.788;2022-10-31T03:41:47;12.30;99.90
11009;DHT22;5557;51.670;7.788;2022-10-31T03:44:20;12.40;99.90
11009;DHT22;5557;51.670;7.788;2022-10-31T03:46:48;12.40;99.90
11009;DHT22;5557;51.670;7.788;2022-10-31T03:49:17;12.40;99.90
11009;DHT22;5557;51.670;7.788;2022-10-31T03:51:54;12.40;99.90
11009;DHT22;5557;51.670;7.788;2022-10-31T03:57:32;12.50;99.90
11009;DHT22;5557;51.670;7.788;2022-10-31T04:00:11;12.40;99.90
11009;DHT22;5557;51.670;7.788;2022-10-31T04:02:43;12.40;99.90
11009;DHT22;5557;51.670;7.788;2022-10-31T04:05:13;12.40;99.90
11009;DHT22;5557;51.670;7.788;2022-10-31T04:07:46;12.40;99.90
11009;DHT22;5557;51.670;7.788;2022-10-31T04:10:15;12.40;99.90
11009;DHT22;5557;51.670;7.788;2022-10-31T04:12:46;12.40;99.90
11009;DHT22;5557;51.670;7.788;2022-10-31T04:15:14;12.30;99.90
11009;DHT22;5557;51.670;7.788;2022-10-31T04:17:42;12.30;99.90
11009;DHT22;5557;51.670;7.788;2022-10-31T04:20:15;12.40;99.90
11009;DHT22;5557;51.670;7.788;2022-10-31T04:22:43;12.30;99.90
11009;DHT22;5557;51.670;7.788;2022-10-31T04:25:13;12.20;99.90
11009;DHT22;5557;51.670;7.788;2022-10-31T04:27:40;12.10;99.90
11009;DHT22;5557;51.670;7.788;2022-10-31T04:30:07;12.10;99.90
11009;DHT22;5557;51.670;7.788;2022-10-31T04:32:34;12.10;99.90
11009;DHT22;5557;51.670;7.788;2022-10-31T04:35:01;12.00;99.90
11009;DHT22;5557;51.670;7.788;2022-10-31T04:37:28;12.00;99.90
11009;DHT22;5557;51.670;7.788;2022-10-31T04:39:58;11.90;99.90
11009;DHT22;5557;51.670;7.788;2022-10-31T04:42:25;11.90;99.90
11009;DHT22;5557;51.670;7.788;2022-10-31T04:44:52;11.80;99.90
11009;DHT22;5557;51.670;7.788;2022-10-31T04:47:23;11.70;99.90
11009;DHT22;5557;51.670;7.788;2022-10-31T04:49:50;11.70;99.90
11009;DHT22;5557;51.670;7.788;2022-10-31T04:52:16;11.70;99.90
11009;DHT22;5557;51.670;7.788;2022-10-31T04:54:45;11.70;99.90
11009;DHT22;5557;51.670;7.788;2022-10-31T04:57:16;11.70;99.90
11009;DHT22;5557;51.670;7.788;2022-10-31T04:59:43;11.60;99.90
11009;DHT22;5557;51.670;7.788;2022-10-31T05:02:16;11.50;99.90
11009;DHT22;5557;51.670;7.788;2022-10-31T05:04:43;11.40;99.90
11009;DHT22;5557;51.670;7.788;2022-10-31T05:07:10;11.50;99.90
11009;DHT22;5557;51.670;7.788;2022-10-31T05:09:36;11.40;99.90
11009;DHT22;5557;51.670;7.788;2022-10-31T05:12:04;11.30;99.90
11009;DHT22;5557;51.670;7.788;2022-10-31T05:14:36;11.20;99.90
11009;DHT22;5557;51.670;7.788;2022-10-31T05:17:03;11.20;99.90
11009;DHT22;5557;51.670;7.788;2022-10-31T05:19:30;11.30;99.90
11009;DHT22;5557;51.670;7.788;2022-10-31T05:21:57;11.30;99.90
11009;DHT22;5557;51.670;7.788;2022-10-31T05:24:26;11.20;99.90
11009;DHT22;5557;51.670;7.788;2022-10-31T05:26:53;11.20;99.90
11009;DHT22;5557;51.670;7.788;2022-10-31T05:29:23;11.10;99.90
11009;DHT22;5557;51.670;7.788;2022-10-31T05:31:50;11.10;99.90
11009;DHT22;5557;51.670;7.788;2022-10-31T05:34:17;11.10;99.90
11009;DHT22;5557;51.670;7.788;2022-10-31T05:36:44;11.20;99.90
11009;DHT22;5557;51.670;7.788;2022-10-31T05:39:11;11.20;99.90
11009;DHT22;5557;51.670;7.788;2022-10-31T05:41:40;11.20;99.90
11009;DHT22;5557;51.670;7.788;2022-10-31T05:44:07;11.10;99.90
11009;DHT22;5557;51.670;7.788;2022-10-31T05:46:33;11.10;99.90
11009;DHT22;5557;51.670;7.788;2022-10-31T05:49:00;11.00;99.90
11009;DHT22;5557;51.670;7.788;2022-10-31T05:51:28;11.00;99.90
11009;DHT22;5557;51.670;7.788;2022-10-31T05:53:56;11.00;99.90
11009;DHT22;5557;51.670;7.788;2022-10-31T05:56:22;11.00;99.90
11009;DHT22;5557;51.670;7.788;2022-10-31T05:58:49;11.00;99.90
11009;DHT22;5557;51.670;7.788;2022-10-31T06:01:16;10.90;99.90
11009;DHT22;5557;51.670;7.788;2022-10-31T06:03:45;10.90;99.90
11009;DHT22;5557;51.670;7.788;2022-10-31T06:06:13;10.90;99.90
11009;DHT22;5557;51.670;7.788;2022-10-31T06:08:40;10.90;99.90
11009;DHT22;5557;51.670;7.788;2022-10-31T06:11:07;10.90;99.90
11009;DHT22;5557;51.670;7.788;2022-10-31T06:13:34;11.00;99.90
11009;DHT22;5557;51.670;7.788;2022-10-31T06:16:01;11.00;99.90
11009;DHT22;5557;51.670;7.788;2022-10-31T06:18:28;11.00;99.90
11009;DHT22;5557;51.670;7.788;2022-10-31T06:20:54;11.00;99.90
11009;DHT22;5557;51.670;7.788;2022-10-31T06:23:21;11.00;99.90
11009;DHT22;5557;51.670;7.788;2022-10-31T06:25:49;11.00;99.90
11009;DHT22;5557;51.670;7.788;2022-10-31T06:28:17;11.00;99.90
11009;DHT22;5557;51.670;7.788;2022-10-31T06:30:44;11.00;99.90
11009;DHT22;5557;51.670;7.788;2022-10-31T06:33:11;11.00;99.90
11009;DHT22;5557;51.670;7.788;2022-10-31T06:35:38;11.00;99.90
11009;DHT22;5557;51.670;7.788;2022-10-31T06:38:11;11.10;99.90
11009;DHT22;5557;51.670;7.788;2022-10-31T06:40:38;11.10;99.90
11009;DHT22;5557;51.670;7.788;2022-10-31T06:43:05;11.10;99.90
11009;DHT22;5557;51.670;7.788;2022-10-31T06:45:31;11.20;99.90
11009;DHT22;5557;51.670;7.788;2022-10-31T06:47:58;11.20;99.90
11009;DHT22;5557;51.670;7.788;2022-10-31T06:50:43;11.20;99.90
11009;DHT22;5557;51.670;7.788;2022-10-31T06:53:10;11.30;99.90
11009;DHT22;5557;51.670;7.788;2022-10-31T06:55:38;11.30;99.90
11009;DHT22;5557;51.670;7.788;2022-10-31T06:58:05;11.30;99.90
11009;DHT22;5557;51.670;7.788;2022-10-31T07:00:36;11.40;99.90
11009;DHT22;5557;51.670;7.788;2022-10-31T07:03:05;11.50;99.90
11009;DHT22;5557;51.670;7.788;2022-10-31T07:05:32;11.60;99.90
11009;DHT22;5557;51.670;7.788;2022-10-31T07:08:02;11.70;99.90
11009;DHT22;5557;51.670;7.788;2022-10-31T07:10:31;11.90;99.90
11009;DHT22;5557;51.670;7.788;2022-10-31T07:13:08;12.00;99.90
11009;DHT22;5557;51.670;7.788;2022-10-31T07:15:37;12.00;99.90
11009;DHT22;5557;51.670;7.788;2022-10-31T07:18:06;12.10;99.90
11009;DHT22;5557;51.670;7.788;2022-10-31T07:20:34;12.20;99.90
11009;DHT22;5557;51.670;7.788;2022-10-31T07:23:01;12.40;99.90
11009;DHT22;5557;51.670;7.788;2022-10-31T07:25:29;12.60;99.90
11009;DHT22;5557;51.670;7.788;2022-10-31T07:27:56;12.80;99.90
11009;DHT22;5557;51.670;7.788;2022-10-31T07:30:23;13.00;99.90
11009;DHT22;5557;51.670;7.788;2022-10-31T07:32:51;13.20;99.90
11009;DHT22;5557;51.670;7.788;2022-10-31T07:35:20;13.40;99.90
11009;DHT22;5557;51.670;7.788;2022-10-31T07:37:48;13.40;99.90
11009;DHT22;5557;51.670;7.788;2022-10-31T07:40:20;13.40;99.90
11009;DHT22;5557;51.670;7.788;2022-10-31T07:42:53;13.40;99.90
11009;DHT22;5557;51.670;7.788;2022-10-31T07:45:21;13.40;99.90
11009;DHT22;5557;51.670;7.788;2022-10-31T07:47:52;13.60;99.90
11009;DHT22;5557;51.670;7.788;2022-10-31T07:50:28;13.70;99.80
11009;DHT22;5557;51.670;7.788;2022-10-31T07:53:05;13.80;97.50
11009;DHT22;5557;51.670;7.788;2022-10-31T07:55:33;13.70;98.20
11009;DHT22;5557;51.670;7.788;2022-10-31T08:00:35;13.80;98.00
11009;DHT22;5557;51.670;7.788;2022-10-31T08:03:03;13.80;96.20
11009;DHT22;5557;51.670;7.788;2022-10-31T08:05:31;13.60;97.40
11009;DHT22;5557;51.670;7.788;2022-10-31T08:07:58;13.50;99.10
11009;DHT22;5557;51.670;7.788;2022-10-31T08:10:26;13.40;99.90
11009;DHT22;5557;51.670;7.788;2022-10-31T08:13:02;13.30;99.90
11009;DHT22;5557;51.670;7.788;2022-10-31T08:15:30;13.20;99.90
11009;DHT22;5557;51.670;7.788;2022-10-31T08:17:57;13.20;99.90
11009;DHT22;5557;51.670;7.788;2022-10-31T08:20:25;13.10;99.90
11009;DHT22;5557;51.670;7.788;2022-10-31T08:23:10;13.10;99.90
11009;DHT22;5557;51.670;7.788;2022-10-31T08:25:38;13.10;99.90
11009;DHT22;5557;51.670;7.788;2022-10-31T08:28:06;13.10;99.90
11009;DHT22;5557;51.670;7.788;2022-10-31T08:30:35;13.20;99.90
11009;DHT22;5557;51.670;7.788;2022-10-31T08:33:04;13.30;99.90
11009;DHT22;5557;51.670;7.788;2022-10-31T08:35:33;13.40;99.90
11009;DHT22;5557;51.670;7.788;2022-10-31T08:38:00;13.50;99.90
11009;DHT22;5557;51.670;7.788;2022-10-31T08:40:29;13.50;99.90
11009;DHT22;5557;51.670;7.788;2022-10-31T08:43:01;13.60;99.90
11009;DHT22;5557;51.670;7.788;2022-10-31T08:45:30;13.70;99.90
11009;DHT22;5557;51.670;7.788;2022-10-31T08:48:03;14.00;99.90
11009;DHT22;5557;51.670;7.788;2022-10-31T08:50:32;14.10;98.00
11009;DHT22;5557;51.670;7.788;2022-10-31T08:53:07;14.10;98.00
11009;DHT22;5557;51.670;7.788;2022-10-31T08:55:35;14.20;97.40
11009;DHT22;5557;51.670;7.788;2022-10-31T08:58:08;14.30;98.30
11009;DHT22;5557;51.670;7.788;2022-10-31T09:00:36;14.40;97.00
11009;DHT22;5557;51.670;7.788;2022-10-31T09:03:12;14.50;96.50
11009;DHT22;5557;51.670;7.788;2022-10-31T09:05:39;14.60;96.10
11009;DHT22;5557;51.670;7.788;2022-10-31T09:08:07;14.80;92.90
11009;DHT22;5557;51.670;7.788;2022-10-31T09:10:41;14.90;92.90
11009;DHT22;5557;51.670;7.788;2022-10-31T09:13:16;15.00;91.70
11009;DHT22;5557;51.670;7.788;2022-10-31T09:15:47;15.00;92.40
11009;DHT22;5557;51.670;7.788;2022-10-31T09:18:17;15.00;91.10
11009;DHT22;5557;51.670;7.788;2022-10-31T09:20:46;14.80;92.20
11009;DHT22;5557;51.670;7.788;2022-10-31T09:23:18;14.90;91.70
11009;DHT22;5557;51.670;7.788;2022-10-31T09:25:47;15.20;90.80
11009;DHT22;5557;51.670;7.788;2022-10-31T09:28:19;15.40;87.10
11009;DHT22;5557;51.670;7.788;2022-10-31T09:30:48;15.40;87.50
11009;DHT22;5557;51.670;7.788;2022-10-31T09:33:15;15.50;89.20
11009;DHT22;5557;51.670;7.788;2022-10-31T09:35:42;15.80;80.80
11009;DHT22;5557;51.670;7.788;2022-10-31T09:38:11;16.10;79.40
11009;DHT22;5557;51.670;7.788;2022-10-31T09:40:40;16.30;72.20
11009;DHT22;5557;51.670;7.788;2022-10-31T09:47:44;16.20;75.90
11009;DHT22;5557;51.670;7.788;2022-10-31T09:50:24;16.30;73.80
11009;DHT22;5557;51.670;7.788;2022-10-31T09:53:13;16.60;69.70
11009;DHT22;5557;51.670;7.788;2022-10-31T09:56:02;16.60;69.50
11009;DHT22;5557;51.670;7.788;2022-10-31T09:59:03;16.70;74.40
11009;DHT22;5557;51.670;7.788;2022-10-31T10:01:55;16.90;70.40
11009;DHT22;5557;51.670;7.788;2022-10-31T10:04:42;17.30;62.70
11009;DHT22;5557;51.670;7.788;2022-10-31T10:07:52;17.40;60.20
11009;DHT22;5557;51.670;7.788;2022-10-31T10:16:54;17.20;61.10
11009;DHT22;5557;51.670;7.788;2022-10-31T10:19:34;17.00;62.50
11009;DHT22;5557;51.670;7.788;2022-10-31T10:25:32;16.90;66.10
11009;DHT22;5557;51.670;7.788;2022-10-31T10:28:25;16.70;71.50
11009;DHT22;5557;51.670;7.788;2022-10-31T10:31:07;16.60;73.80
11009;DHT22;5557;51.670;7.788;2022-10-31T10:35:23;16.70;73.80
11009;DHT22;5557;51.670;7.788;2022-10-31T10:37:08;16.70;71.90
11009;DHT22;5557;51.670;7.788;2022-10-31T10:39:40;16.80;71.10
11009;DHT22;5557;51.670;7.788;2022-10-31T10:42:12;16.80;70.80
11009;DHT22;5557;51.670;7.788;2022-10-31T10:44:58;16.70;72.10
11009;DHT22;5557;51.670;7.788;2022-10-31T10:47:51;16.60;76.00
11009;DHT22;5557;51.670;7.788;2022-10-31T10:50:30;16.70;75.00
11009;DHT22;5557;51.670;7.788;2022-10-31T10:53:48;16.70;74.50
11009;DHT22;5557;51.670;7.788;2022-10-31T10:58:09;16.70;76.10
11009;DHT22;5557;51.670;7.788;2022-10-31T10:59:39;16.70;76.90
11009;DHT22;5557;51.670;7.788;2022-10-31T11:02:22;16.80;74.20
11009;DHT22;5557;51.670;7.788;2022-10-31T11:04:55;17.00;74.20
11009;DHT22;5557;51.670;7.788;2022-10-31T11:07:22;17.10;69.80
11009;DHT22;5557;51.670;7.788;2022-10-31T11:09:49;17.20;68.80
11009;DHT22;5557;51.670;7.788;2022-10-31T11:12:20;17.40;65.80
11009;DHT22;5557;51.670;7.788;2022-10-31T11:14:58;17.60;64.30
11009;DHT22;5557;51.670;7.788;2022-10-31T11:20:24;17.70;58.60
11009;DHT22;5557;51.670;7.788;2022-10-31T11:23:02;17.70;58.60
11009;DHT22;5557;51.670;7.788;2022-10-31T11:25:29;17.70;56.00
11009;DHT22;5557;51.670;7.788;2022-10-31T11:28:09;17.60;63.50
11009;DHT22;5557;51.670;7.788;2022-10-31T11:30:53;17.70;57.00
11009;DHT22;5557;51.670;7.788;2022-10-31T11:33:33;17.90;56.70
11009;DHT22;5557;51.670;7.788;2022-10-31T11:36:32;18.00;55.00
11009;DHT22;5557;51.670;7.788;2022-10-31T11:39:02;18.20;52.10
11009;DHT22;5557;51.670;7.788;2022-10-31T11:41:32;18.30;46.90
11009;DHT22;5557;51.670;7.788;2022-10-31T11:44:13;18.30;45.80
11009;DHT22;5557;51.670;7.788;2022-10-31T11:46:54;18.30;43.30
11009;DHT22;5557;51.670;7.788;2022-10-31T11:49:33;17.90;48.80
11009;DHT22;5557;51.670;7.788;2022-10-31T11:52:05;17.80;50.30
11009;DHT22;5557;51.670;7.788;2022-10-31T11:54:50;17.80;53.20
11009;DHT22;5557;51.670;7.788;2022-10-31T11:57:31;17.90;53.20
11009;DHT22;5557;51.670;7.788;2022-10-31T12:00:00;18.10;51.30
11009;DHT22;5557;51.670;7.788;2022-10-31T12:02:27;18.20;48.90
11009;DHT22;5557;51.670;7.788;2022-10-31T12:05:18;18.20;45.00
11009;DHT22;5557;51.670;7.788;2022-10-31T12:07:49;18.20;47.10
11009;DHT22;5557;51.670;7.788;2022-10-31T12:10:16;18.20;47.40
11009;DHT22;5557;51.670;7.788;2022-10-31T12:15:52;18.20;45.90
11009;DHT22;5557;51.670;7.788;2022-10-31T12:19:04;18.10;45.90
11009;DHT22;5557;51.670;7.788;2022-10-31T12:26:08;18.00;50.20
11009;DHT22;5557;51.670;7.788;2022-10-31T12:33:58;18.20;54.40
11009;DHT22;5557;51.670;7.788;2022-10-31T12:45:57;18.40;53.70
11009;DHT22;5557;51.670;7.788;2022-10-31T12:49:01;18.40;53.70
11009;DHT22;5557;51.670;7.788;2022-10-31T12:57:56;18.50;58.40
11009;DHT22;5557;51.670;7.788;2022-10-31T13:00:26;18.60;59.00
11009;DHT22;5557;51.670;7.788;2022-10-31T13:06:18;18.90;54.20
11009;DHT22;5557;51.670;7.788;2022-10-31T13:09:00;18.90;54.20
11009;DHT22;5557;51.670;7.788;2022-10-31T13:11:32;18.80;54.10
11009;DHT22;5557;51.670;7.788;2022-10-31T13:14:25;18.80;54.10
11009;DHT22;5557;51.670;7.788;2022-10-31T13:16:55;18.70;56.40
11009;DHT22;5557;51.670;7.788;2022-10-31T13:19:26;18.80;55.80
11009;DHT22;5557;51.670;7.788;2022-10-31T13:24:59;18.80;56.50
11009;DHT22;5557;51.670;7.788;2022-10-31T13:27:37;18.80;55.90
11009;DHT22;5557;51.670;7.788;2022-10-31T13:30:17;18.90;54.70
11009;DHT22;5557;51.670;7.788;2022-10-31T13:32:57;18.80;54.10
11009;DHT22;5557;51.670;7.788;2022-10-31T13:35:41;18.80;52.50
11009;DHT22;5557;51.670;7.788;2022-10-31T13:38:51;18.80;52.60
11009;DHT22;5557;51.670;7.788;2022-10-31T13:44:00;18.70;55.70
11009;DHT22;5557;51.670;7.788;2022-10-31T13:46:38;18.70;56.00
11009;DHT22;5557;51.670;7.788;2022-10-31T13:52:17;18.80;56.80
11009;DHT22;5557;51.670;7.788;2022-10-31T13:54:50;18.90;56.30
11009;DHT22;5557;51.670;7.788;2022-10-31T13:57:38;19.00;50.40
11009;DHT22;5557;51.670;7.788;2022-10-31T14:00:24;19.00;51.00
11009;DHT22;5557;51.670;7.788;2022-10-31T14:02:55;19.10;52.30
11009;DHT22;5557;51.670;7.788;2022-10-31T14:05:37;19.10;50.90
11009;DHT22;5557;51.670;7.788;2022-10-31T14:08:18;19.10;51.80
11009;DHT22;5557;51.670;7.788;2022-10-31T14:10:49;19.00;53.10
11009;DHT22;5557;51.670;7.788;2022-10-31T14:13:34;18.90;54.80
11009;DHT22;5557;51.670;7.788;2022-10-31T14:16:23;19.00;55.70
11009;DHT22;5557;51.670;7.788;2022-10-31T14:19:01;19.00;54.30
11009;DHT22;5557;51.670;7.788;2022-10-31T14:21:38;18.90;56.30
11009;DHT22;5557;51.670;7.788;2022-10-31T14:24:43;18.90;56.00
11009;DHT22;5557;51.670;7.788;2022-10-31T14:27:44;18.80;57.40
11009;DHT22;5557;51.670;7.788;2022-10-31T14:30:17;18.80;60.00
11009;DHT22;5557;51.670;7.788;2022-10-31T14:32:44;18.70;60.30
11009;DHT22;5557;51.670;7.788;2022-10-31T14:35:17;18.70;60.70
11009;DHT22;5557;51.670;7.788;2022-10-31T14:39:30;18.70;60.00
11009;DHT22;5557;51.670;7.788;2022-10-31T14:41:14;18.70;60.70
11009;DHT22;5557;51.670;7.788;2022-10-31T14:43:49;18.70;61.20
11009;DHT22;5557;51.670;7.788;2022-10-31T14:52:29;18.70;60.80
11009;DHT22;5557;51.670;7.788;2022-10-31T14:54:57;18.70;59.40
11009;DHT22;5557;51.670;7.788;2022-10-31T14:57:32;18.70;59.10
11009;DHT22;5557;51.670;7.788;2022-10-31T15:00:03;18.70;59.10
11009;DHT22;5557;51.670;7.788;2022-10-31T15:03:17;18.70;58.40
11009;DHT22;5557;51.670;7.788;2022-10-31T15:05:53;18.60;58.60
11009;DHT22;5557;51.670;7.788;2022-10-31T15:09:20;18.60;59.00
11009;DHT22;5557;51.670;7.788;2022-10-31T15:11:37;18.50;60.10
11009;DHT22;5557;51.670;7.788;2022-10-31T15:14:27;18.40;63.10
11009;DHT22;5557;51.670;7.788;2022-10-31T15:16:57;18.40;64.50
11009;DHT22;5557;51.670;7.788;2022-10-31T15:19:27;18.30;66.80
11009;DHT22;5557;51.670;7.788;2022-10-31T15:21:56;18.20;68.40
11009;DHT22;5557;51.670;7.788;2022-10-31T15:24:42;18.20;69.10
11009;DHT22;5557;51.670;7.788;2022-10-31T15:27:17;18.10;70.60
11009;DHT22;5557;51.670;7.788;2022-10-31T15:29:51;18.00;72.50
11009;DHT22;5557;51.670;7.788;2022-10-31T15:32:24;18.00;74.00
11009;DHT22;5557;51.670;7.788;2022-10-31T15:34:52;17.90;74.50
11009;DHT22;5557;51.670;7.788;2022-10-31T15:37:21;17.90;75.10
11009;DHT22;5557;51.670;7.788;2022-10-31T15:39:49;17.90;76.20
11009;DHT22;5557;51.670;7.788;2022-10-31T15:42:32;17.80;77.90
11009;DHT22;5557;51.670;7.788;2022-10-31T15:45:24;17.70;79.70
11009;DHT22;5557;51.670;7.788;2022-10-31T15:48:00;17.70;80.80
11009;DHT22;5557;51.670;7.788;2022-10-31T15:50:38;17.60;82.50
11009;DHT22;5557;51.670;7.788;2022-10-31T15:53:17;17.60;83.80
11009;DHT22;5557;51.670;7.788;2022-10-31T15:55:59;17.60;84.80
11009;DHT22;5557;51.670;7.788;2022-10-31T15:58:27;17.50;84.40
11009;DHT22;5557;51.670;7.788;2022-10-31T16:01:19;17.50;85.60
11009;DHT22;5557;51.670;7.788;2022-10-31T16:03:59;17.40;86.10
11009;DHT22;5557;51.670;7.788;2022-10-31T16:06:26;17.40;87.00
11009;DHT22;5557;51.670;7.788;2022-10-31T16:08:53;17.40;85.90
11009;DHT22;5557;51.670;7.788;2022-10-31T16:11:22;17.40;85.20
11009;DHT22;5557;51.670;7.788;2022-10-31T16:14:05;17.40;86.90
11009;DHT22;5557;51.670;7.788;2022-10-31T16:16:43;17.30;86.90
11009;DHT22;5557;51.670;7.788;2022-10-31T16:22:08;17.20;88.90
11009;DHT22;5557;51.670;7.788;2022-10-31T16:24:59;17.20;87.60
11009;DHT22;5557;51.670;7.788;2022-10-31T16:27:30;17.20;87.40
11009;DHT22;5557;51.670;7.788;2022-10-31T16:29:59;17.20;86.30
11009;DHT22;5557;51.670;7.788;2022-10-31T16:37:58;17.20;85.70
11009;DHT22;5557;51.670;7.788;2022-10-31T16:40:25;17.20;85.30
11009;DHT22;5557;51.670;7.788;2022-10-31T16:42:52;17.20;85.80
11009;DHT22;5557;51.670;7.788;2022-10-31T16:45:29;17.10;86.70
11009;DHT22;5557;51.670;7.788;2022-10-31T16:48:05;17.00;86.60
11009;DHT22;5557;51.670;7.788;2022-10-31T16:50:32;17.00;88.50
11009;DHT22;5557;51.670;7.788;2022-10-31T16:52:59;17.00;88.10
11009;DHT22;5557;51.670;7.788;2022-10-31T16:55:59;16.90;89.00
11009;DHT22;5557;51.670;7.788;2022-10-31T16:58:29;16.90;89.70
11009;DHT22;5557;51.670;7.788;2022-10-31T17:01:01;16.90;89.60
11009;DHT22;5557;51.670;7.788;2022-10-31T17:03:30;16.80;89.40
11009;DHT22;5557;51.670;7.788;2022-10-31T17:05:57;16.80;90.40
11009;DHT22;5557;51.670;7.788;2022-10-31T17:08:24;16.70;90.10
11009;DHT22;5557;51.670;7.788;2022-10-31T17:10:56;16.70;89.30
11009;DHT22;5557;51.670;7.788;2022-10-31T17:13:29;16.70;88.90
11009;DHT22;5557;51.670;7.788;2022-10-31T17:15:58;16.70;88.80
11009;DHT22;5557;51.670;7.788;2022-10-31T17:18:26;16.60;89.70
11009;DHT22;5557;51.670;7.788;2022-10-31T17:20:58;16.50;90.30
11009;DHT22;5557;51.670;7.788;2022-10-31T17:23:26;16.50;89.80
11009;DHT22;5557;51.670;7.788;2022-10-31T17:25:54;16.50;88.60
11009;DHT22;5557;51.670;7.788;2022-10-31T17:28:22;16.50;88.30
11009;DHT22;5557;51.670;7.788;2022-10-31T17:30:49;16.40;88.60
11009;DHT22;5557;51.670;7.788;2022-10-31T17:33:16;16.30;89.60
11009;DHT22;5557;51.670;7.788;2022-10-31T17:35:44;16.30;89.60
11009;DHT22;5557;51.670;7.788;2022-10-31T17:38:11;16.30;88.90
11009;DHT22;5557;51.670;7.788;2022-10-31T17:40:39;16.30;86.30
11009;DHT22;5557;51.670;7.788;2022-10-31T17:43:10;16.30;84.00
11009;DHT22;5557;51.670;7.788;2022-10-31T17:45:39;16.40;81.40
11009;DHT22;5557;51.670;7.788;2022-10-31T17:48:09;16.40;80.30
11009;DHT22;5557;51.670;7.788;2022-10-31T17:50:37;16.30;80.50
11009;DHT22;5557;51.670;7.788;2022-10-31T17:53:04;16.30;81.20
11009;DHT22;5557;51.670;7.788;2022-10-31T17:55:31;16.20;81.30
11009;DHT22;5557;51.670;7.788;2022-10-31T17:58:03;16.10;82.10
11009;DHT22;5557;51.670;7.788;2022-10-31T18:00:30;16.00;83.90
11009;DHT22;5557;51.670;7.788;2022-10-31T18:02:57;16.00;84.10